Christina G — ZCXO5 — position and weather

sailwx.info

Track history (hours):
 
Tides and Currents Weather Stations Pressure Air Temp Water Temp Dewpoint Dewpoint Depression Visibility Wind Speed Wind Dir Waves Ship Positions

Christina G

Last reported at 2015-Sep-02 03:33 UTC. Time now 2015-Sep-02 04:24 UTC.
Position N 39°32' E 002°34'.

Length 33 m; draft 2.5 m.

MMSI: 319032100.

Date/timePositionNaut miles runAvg speedWind from/ knotsBaromVisibWave heightAir tempDewpointWater temp
2015-Sep-02 03:33N 39°32' E 002°34'0 0.0
2015-Sep-02 02:30N 39°32' E 002°34'0 0.0
2015-Sep-02 01:31N 39°32' E 002°34'0 0.0
2015-Sep-02 00:33N 39°32' E 002°34'0 0.0
2015-Sep-01 23:33N 39°32' E 002°34'0 0.0
2015-Sep-01 21:33N 39°32' E 002°34'0 0.0
2015-Sep-01 20:31N 39°32' E 002°34'0 0.0
2015-Sep-01 19:16N 39°32' E 002°34'2 2.6
2015-Sep-01 18:33N 39°32' E 002°36'1 1.1
2015-Sep-01 17:31N 39°32' E 002°35'0 0.0
2015-Sep-01 16:31N 39°32' E 002°35'1 0.7
2015-Sep-01 15:33N 39°31' E 002°34'4 4.1
2015-Sep-01 14:31N 39°28' E 002°31'0 0.0
2015-Sep-01 13:34N 39°28' E 002°31'0 0.0
2015-Sep-01 12:31N 39°28' E 002°31'0 0.0
2015-Sep-01 11:31N 39°28' E 002°31'6 6.7
2015-Sep-01 10:33N 39°28' E 002°40'5 4.8
2015-Sep-01 09:33N 39°31' E 002°35'1 1.2
2015-Sep-01 08:31N 39°32' E 002°34'0 0.0
2015-Sep-01 07:31N 39°32' E 002°34'0 0.0
2015-Sep-01 06:25N 39°32' E 002°34'0 0.0
2015-Sep-01 05:07N 39°32' E 002°34'0 0.0
2015-Sep-01 04:25N 39°32' E 002°34'0 0.0
2015-Sep-01 03:31N 39°32' E 002°34'0 0.0
2015-Sep-01 02:25N 39°32' E 002°34'0 0.0
2015-Sep-01 01:31N 39°32' E 002°34'0 0.0
2015-Sep-01 00:31N 39°32' E 002°34'0 0.0
2015-Aug-31 19:07N 39°32' E 002°34'0 0.0
2015-Aug-31 18:30N 39°32' E 002°34'6 6.6
2015-Aug-31 17:33N 39°28' E 002°28'5 4.1
2015-Aug-31 16:25N 39°32' E 002°24'0 0.0
2015-Aug-31 15:30N 39°32' E 002°24'0 0.0
2015-Aug-31 14:32N 39°32' E 002°24'0 0.0
2015-Aug-31 13:33N 39°32' E 002°24'0 0.0
2015-Aug-31 12:32N 39°32' E 002°24'2 2.5
2015-Aug-31 11:33N 39°30' E 002°27'3 3.1
2015-Aug-31 10:33N 39°28' E 002°28'3 2.6
2015-Aug-31 09:33N 39°25' E 002°28'1010.3
2015-Aug-31 08:33N 39°20' E 002°16'1010.2
2015-Aug-31 07:33N 39°15' E 002°05'1010.2
2015-Aug-31 06:32N 39°10' E 001°53'1010.1
2015-Aug-31 05:33N 39°05' E 001°42'4 3.9
2015-Aug-31 04:33N 39°02' E 001°38'0 0.0
2015-Aug-31 03:33N 39°02' E 001°38'0 0.0
2015-Aug-31 02:33N 39°02' E 001°38'0 0.0
2015-Aug-31 01:32N 39°02' E 001°38'0 0.0
2015-Aug-31 00:32N 39°02' E 001°38'0 0.0
2015-Aug-30 23:30N 39°02' E 001°38'0 0.0
2015-Aug-30 22:31N 39°02' E 001°38'0 0.0
2015-Aug-30 21:32N 39°02' E 001°38'0 0.0
2015-Aug-30 20:30N 39°02' E 001°38'0 0.0
2015-Aug-30 19:33N 39°02' E 001°38'7 6.5
2015-Aug-30 18:33N 38°57' E 001°33'  
2015-Aug-28 14:15N 38°50' E 001°18'8 4.3
2015-Aug-28 12:30N 38°55' E 001°26'0 0.0
2015-Aug-28 02:24N 38°55' E 001°26'0 0.0
2015-Aug-28 01:32N 38°55' E 001°26'7 0.6
2015-Aug-27 14:28N 38°51' E 001°19'5 0.2
2015-Aug-26 17:32N 38°51' E 001°26'6 3.0
2015-Aug-26 15:33N 38°45' E 001°26'8 2.4
2015-Aug-26 12:26N 38°53' E 001°26'1 0.1
2015-Aug-25 09:11N 38°54' E 001°27'810.0
2015-Aug-25 08:22N 38°59' E 001°36'4 5.4
2015-Aug-25 07:33N 39°03' E 001°36'0 0.0
2015-Aug-25 06:33N 39°03' E 001°36'0 0.0
2015-Aug-25 05:33N 39°03' E 001°36'0 0.0
2015-Aug-25 04:33N 39°03' E 001°36'0 0.0
2015-Aug-25 03:33N 39°03' E 001°36'0 0.0
2015-Aug-25 02:33N 39°03' E 001°36'0 0.0
2015-Aug-25 01:33N 39°03' E 001°36'0 0.0
2015-Aug-25 00:33N 39°03' E 001°36'0 0.0
2015-Aug-24 23:33N 39°03' E 001°36'0 0.0
2015-Aug-24 22:33N 39°03' E 001°36'0 0.0
2015-Aug-24 21:33N 39°03' E 001°36'0 0.0
2015-Aug-24 20:33N 39°03' E 001°36'0 0.0
2015-Aug-24 19:33N 39°03' E 001°36'0 0.0
2015-Aug-24 18:33N 39°03' E 001°36'0 0.0
2015-Aug-24 17:33N 39°03' E 001°36'0 0.0
2015-Aug-24 16:33N 39°03' E 001°36'0 0.0
2015-Aug-24 15:33N 39°03' E 001°36'0 0.0
2015-Aug-24 14:33N 39°03' E 001°36'0 0.0
2015-Aug-24 13:33N 39°03' E 001°36'0 0.0
2015-Aug-24 12:33N 39°03' E 001°36'0 0.0
2015-Aug-24 11:33N 39°03' E 001°36'0 0.0
2015-Aug-24 10:33N 39°03' E 001°36'0 0.0
2015-Aug-24 09:33N 39°03' E 001°36'5 5.3
2015-Aug-24 08:32N 39°07' E 001°31'1 1.3
2015-Aug-24 07:31N 39°06' E 001°30'0 0.0
2015-Aug-24 06:32N 39°06' E 001°30'0 0.0
2015-Aug-24 05:33N 39°06' E 001°30'0 0.0
2015-Aug-24 04:33N 39°06' E 001°30'0 0.0
2015-Aug-24 03:33N 39°06' E 001°30'0 0.0
2015-Aug-24 02:33N 39°06' E 001°30'0 0.0
2015-Aug-24 01:33N 39°06' E 001°30'0 0.0
2015-Aug-24 00:33N 39°06' E 001°30'0 0.0
2015-Aug-23 23:33N 39°06' E 001°30'0 0.0
2015-Aug-23 22:33N 39°06' E 001°30'0 0.0
2015-Aug-23 21:33N 39°06' E 001°30'0 0.0
2015-Aug-23 20:33N 39°06' E 001°30'0 0.0
2015-Aug-23 19:31N 39°06' E 001°30'0 0.0
2015-Aug-23 18:33N 39°06' E 001°30'0 0.0
2015-Aug-23 17:29N 39°06' E 001°30'0 0.0
2015-Aug-23 16:30N 39°06' E 001°30'0 0.0
2015-Aug-23 15:29N 39°06' E 001°30'0 0.0
2015-Aug-23 14:33N 39°06' E 001°30'0 0.0
2015-Aug-23 13:33N 39°06' E 001°30'0 0.0
2015-Aug-23 12:33N 39°06' E 001°30'6 6.2
2015-Aug-23 11:33N 39°04' E 001°37'10 9.9
2015-Aug-23 10:32N 38°56' E 001°30'  
Track history (hours):
 
Tides and Currents Weather Stations Pressure Air Temp Water Temp Dewpoint Dewpoint Depression Visibility Wind Speed Wind Dir Waves Ship Positions

Christina G

Last reported at 2015-Sep-02 03:33 UTC. Time now 2015-Sep-02 04:24 UTC.
Position N 39°32' E 002°34'.

Length 33 m; draft 2.5 m.

MMSI: 319032100.

Date/timePositionNaut miles runAvg speedWind from/ knotsBaromVisibWave heightAir tempDewpointWater temp
2015-Sep-02 03:33N 39°32' E 002°34'0 0.0
2015-Sep-02 02:30N 39°32' E 002°34'0 0.0
2015-Sep-02 01:31N 39°32' E 002°34'0 0.0
2015-Sep-02 00:33N 39°32' E 002°34'0 0.0
2015-Sep-01 23:33N 39°32' E 002°34'0 0.0
2015-Sep-01 21:33N 39°32' E 002°34'0 0.0
2015-Sep-01 20:31N 39°32' E 002°34'0 0.0
2015-Sep-01 19:16N 39°32' E 002°34'2 2.6
2015-Sep-01 18:33N 39°32' E 002°36'1 1.1
2015-Sep-01 17:31N 39°32' E 002°35'0 0.0
2015-Sep-01 16:31N 39°32' E 002°35'1 0.7
2015-Sep-01 15:33N 39°31' E 002°34'4 4.1
2015-Sep-01 14:31N 39°28' E 002°31'0 0.0
2015-Sep-01 13:34N 39°28' E 002°31'0 0.0
2015-Sep-01 12:31N 39°28' E 002°31'0 0.0
2015-Sep-01 11:31N 39°28' E 002°31'6 6.7
2015-Sep-01 10:33N 39°28' E 002°40'5 4.8
2015-Sep-01 09:33N 39°31' E 002°35'1 1.2
2015-Sep-01 08:31N 39°32' E 002°34'0 0.0
2015-Sep-01 07:31N 39°32' E 002°34'0 0.0
2015-Sep-01 06:25N 39°32' E 002°34'0 0.0
2015-Sep-01 05:07N 39°32' E 002°34'0 0.0
2015-Sep-01 04:25N 39°32' E 002°34'0 0.0
2015-Sep-01 03:31N 39°32' E 002°34'0 0.0
2015-Sep-01 02:25N 39°32' E 002°34'0 0.0
2015-Sep-01 01:31N 39°32' E 002°34'0 0.0
2015-Sep-01 00:31N 39°32' E 002°34'0 0.0
2015-Aug-31 19:07N 39°32' E 002°34'0 0.0
2015-Aug-31 18:30N 39°32' E 002°34'6 6.6
2015-Aug-31 17:33N 39°28' E 002°28'5 4.1
2015-Aug-31 16:25N 39°32' E 002°24'0 0.0
2015-Aug-31 15:30N 39°32' E 002°24'0 0.0
2015-Aug-31 14:32N 39°32' E 002°24'0 0.0
2015-Aug-31 13:33N 39°32' E 002°24'0 0.0
2015-Aug-31 12:32N 39°32' E 002°24'2 2.5
2015-Aug-31 11:33N 39°30' E 002°27'3 3.1
2015-Aug-31 10:33N 39°28' E 002°28'3 2.6
2015-Aug-31 09:33N 39°25' E 002°28'1010.3
2015-Aug-31 08:33N 39°20' E 002°16'1010.2
2015-Aug-31 07:33N 39°15' E 002°05'1010.2
2015-Aug-31 06:32N 39°10' E 001°53'1010.1
2015-Aug-31 05:33N 39°05' E 001°42'4 3.9
2015-Aug-31 04:33N 39°02' E 001°38'0 0.0
2015-Aug-31 03:33N 39°02' E 001°38'0 0.0
2015-Aug-31 02:33N 39°02' E 001°38'0 0.0
2015-Aug-31 01:32N 39°02' E 001°38'0 0.0
2015-Aug-31 00:32N 39°02' E 001°38'0 0.0
2015-Aug-30 23:30N 39°02' E 001°38'0 0.0
2015-Aug-30 22:31N 39°02' E 001°38'0 0.0
2015-Aug-30 21:32N 39°02' E 001°38'0 0.0
2015-Aug-30 20:30N 39°02' E 001°38'0 0.0
2015-Aug-30 19:33N 39°02' E 001°38'7 6.5
2015-Aug-30 18:33N 38°57' E 001°33'  
2015-Aug-28 14:15N 38°50' E 001°18'8 4.3
2015-Aug-28 12:30N 38°55' E 001°26'0 0.0
2015-Aug-28 02:24N 38°55' E 001°26'0 0.0
2015-Aug-28 01:32N 38°55' E 001°26'7 0.6
2015-Aug-27 14:28N 38°51' E 001°19'5 0.2
2015-Aug-26 17:32N 38°51' E 001°26'6 3.0
2015-Aug-26 15:33N 38°45' E 001°26'8 2.4
2015-Aug-26 12:26N 38°53' E 001°26'1 0.1
2015-Aug-25 09:11N 38°54' E 001°27'810.0
2015-Aug-25 08:22N 38°59' E 001°36'4 5.4
2015-Aug-25 07:33N 39°03' E 001°36'0 0.0
2015-Aug-25 06:33N 39°03' E 001°36'0 0.0
2015-Aug-25 05:33N 39°03' E 001°36'0 0.0
2015-Aug-25 04:33N 39°03' E 001°36'0 0.0
2015-Aug-25 03:33N 39°03' E 001°36'0 0.0
2015-Aug-25 02:33N 39°03' E 001°36'0 0.0
2015-Aug-25 01:33N 39°03' E 001°36'0 0.0
2015-Aug-25 00:33N 39°03' E 001°36'0 0.0
2015-Aug-24 23:33N 39°03' E 001°36'0 0.0
2015-Aug-24 22:33N 39°03' E 001°36'0 0.0
2015-Aug-24 21:33N 39°03' E 001°36'0 0.0
2015-Aug-24 20:33N 39°03' E 001°36'0 0.0
2015-Aug-24 19:33N 39°03' E 001°36'0 0.0
2015-Aug-24 18:33N 39°03' E 001°36'0 0.0
2015-Aug-24 17:33N 39°03' E 001°36'0 0.0
2015-Aug-24 16:33N 39°03' E 001°36'0 0.0
2015-Aug-24 15:33N 39°03' E 001°36'0 0.0
2015-Aug-24 14:33N 39°03' E 001°36'0 0.0
2015-Aug-24 13:33N 39°03' E 001°36'0 0.0
2015-Aug-24 12:33N 39°03' E 001°36'0 0.0
2015-Aug-24 11:33N 39°03' E 001°36'0 0.0
2015-Aug-24 10:33N 39°03' E 001°36'0 0.0
2015-Aug-24 09:33N 39°03' E 001°36'5 5.3
2015-Aug-24 08:32N 39°07' E 001°31'1 1.3
2015-Aug-24 07:31N 39°06' E 001°30'0 0.0
2015-Aug-24 06:32N 39°06' E 001°30'0 0.0
2015-Aug-24 05:33N 39°06' E 001°30'0 0.0
2015-Aug-24 04:33N 39°06' E 001°30'0 0.0
2015-Aug-24 03:33N 39°06' E 001°30'0 0.0
2015-Aug-24 02:33N 39°06' E 001°30'0 0.0
2015-Aug-24 01:33N 39°06' E 001°30'0 0.0
2015-Aug-24 00:33N 39°06' E 001°30'0 0.0
2015-Aug-23 23:33N 39°06' E 001°30'0 0.0
2015-Aug-23 22:33N 39°06' E 001°30'0 0.0
2015-Aug-23 21:33N 39°06' E 001°30'0 0.0
2015-Aug-23 20:33N 39°06' E 001°30'0 0.0
2015-Aug-23 19:31N 39°06' E 001°30'0 0.0
2015-Aug-23 18:33N 39°06' E 001°30'0 0.0
2015-Aug-23 17:29N 39°06' E 001°30'0 0.0
2015-Aug-23 16:30N 39°06' E 001°30'0 0.0
2015-Aug-23 15:29N 39°06' E 001°30'0 0.0
2015-Aug-23 14:33N 39°06' E 001°30'0 0.0
2015-Aug-23 13:33N 39°06' E 001°30'0 0.0
2015-Aug-23 12:33N 39°06' E 001°30'6 6.2
2015-Aug-23 11:33N 39°04' E 001°37'10 9.9
2015-Aug-23 10:32N 38°56' E 001°30'  

Dump ship's entire track history